createdAt,value
2023-04-18T00:00:34.613Z,98930.98
2023-04-18T00:03:07.539Z,98932.38
2023-04-18T00:05:50.449Z,98930.83
2023-04-18T00:08:27.942Z,98926.68
2023-04-18T00:11:01.652Z,98924.43
2023-04-18T00:13:34.876Z,98925.47
2023-04-18T00:16:10.236Z,98921.33
2023-04-18T00:18:44.376Z,98926.33
2023-04-18T00:21:18.654Z,98919.95
2023-04-18T00:23:57.342Z,98919.43
2023-04-18T00:26:35.132Z,98916.85
2023-04-18T00:29:08.692Z,98917.54
2023-04-18T00:31:45.158Z,98917.54
2023-04-18T00:34:18.452Z,98912.55
2023-04-18T00:36:54.852Z,98908.92
2023-04-18T00:39:30.024Z,98913.73
2023-04-18T00:42:04.512Z,98914.95
2023-04-18T00:44:41.788Z,98910.81
2023-04-18T00:47:17.825Z,98912.70
2023-04-18T00:49:54.761Z,98910.30
2023-04-18T00:52:35.575Z,98910.81
2023-04-18T00:55:12.603Z,98909.27
2023-04-18T00:57:47.897Z,98909.60
2023-04-18T01:00:23.353Z,98905.96
2023-04-18T01:02:58.771Z,98906.65
2023-04-18T01:05:35.872Z,98906.98
2023-04-18T01:08:20.485Z,98902.69
2023-04-18T01:10:55.702Z,98908.20
2023-04-18T01:13:30.607Z,98904.58
2023-04-18T01:16:06.226Z,98899.75
2023-04-18T01:18:42.572Z,98898.02
2023-04-18T01:21:16.658Z,98896.29
2023-04-18T01:24:15.631Z,98890.79
2023-04-18T01:26:51.881Z,98890.60
2023-04-18T01:29:28.498Z,98884.58
2023-04-18T01:32:05.003Z,98880.27
2023-04-18T01:34:44.106Z,98881.64
2023-04-18T01:37:18.327Z,98882.15
2023-04-18T01:39:54.200Z,98874.55
2023-04-18T01:42:29.807Z,98874.74
2023-04-18T01:45:04.449Z,98875.09
2023-04-18T01:47:40.449Z,98875.25
2023-04-18T01:50:18.822Z,98876.74
2023-04-18T01:52:56.103Z,98871.23
2023-04-18T01:55:31.470Z,98871.04
2023-04-18T01:58:12.433Z,98865.69
2023-04-18T02:00:51.907Z,98859.30
2023-04-18T02:03:28.041Z,98868.61
2023-04-18T02:06:06.974Z,98865.15
2023-04-18T02:08:45.395Z,98865.84
2023-04-18T02:11:20.554Z,98868.92
2023-04-18T02:13:58.071Z,98869.77
2023-04-18T02:16:35.628Z,98869.77
2023-04-18T02:19:14.371Z,98864.78
2023-04-18T02:21:49.555Z,98869.59
2023-04-18T02:24:23.538Z,98869.08
2023-04-18T02:27:02.354Z,98867.52
2023-04-18T02:29:36.739Z,98864.40
2023-04-18T02:32:13.480Z,98865.10
2023-04-18T02:34:51.198Z,98866.83
2023-04-18T02:37:29.190Z,98871.29
2023-04-18T02:40:02.721Z,98871.43
2023-04-18T02:42:38.290Z,98872.64
2023-04-18T02:45:15.196Z,98871.59
2023-04-18T02:47:55.508Z,98870.03
2023-04-18T02:50:40.971Z,98871.60
2023-04-18T02:53:13.918Z,98865.23
2023-04-18T02:56:00.167Z,98871.59
2023-04-18T02:58:45.316Z,98876.73
2023-04-18T03:01:45.099Z,98871.71
2023-04-18T03:04:20.980Z,98869.98
2023-04-18T03:07:05.803Z,98872.56
2023-04-18T03:09:41.421Z,98873.56
2023-04-18T03:12:25.376Z,98869.61
2023-04-18T03:14:59.844Z,98868.73
2023-04-18T03:17:35.757Z,98870.77
2023-04-18T03:20:12.679Z,98869.02
2023-04-18T03:22:49.835Z,98868.83
2023-04-18T03:25:28.379Z,98875.01
2023-04-18T03:28:05.606Z,98875.13
2023-04-18T03:30:40.455Z,98878.38
2023-04-18T03:33:17.282Z,98879.56
2023-04-18T03:35:57.257Z,98878.15
2023-04-18T03:38:30.782Z,98876.04
2023-04-18T03:41:05.395Z,98883.92
2023-04-18T03:43:58.781Z,98883.55
2023-04-18T03:46:36.481Z,98884.05
2023-04-18T03:49:16.045Z,98882.63
2023-04-18T03:51:55.746Z,98884.96
2023-04-18T03:54:35.638Z,98884.75
2023-04-18T03:57:10.663Z,98885.59
2023-04-18T03:59:47.909Z,98883.52
2023-04-18T04:02:51.117Z,98887.27
2023-04-18T04:05:54.539Z,98887.74
2023-04-18T04:09:14.298Z,98889.13
2023-04-18T04:12:00.919Z,98888.79
2023-04-18T04:14:36.341Z,98887.55
2023-04-18T04:17:10.524Z,98888.58
2023-04-18T04:25:39.015Z,98889.84
2023-04-18T04:28:19.636Z,98890.84
2023-04-18T04:30:58.559Z,98894.77
2023-04-18T04:33:33.514Z,98893.39
2023-04-18T04:36:10.728Z,98893.06
2023-04-18T04:38:44.962Z,98890.86
2023-04-18T04:41:18.373Z,98896.77
2023-04-18T04:43:53.463Z,98901.45
2023-04-18T04:46:33.505Z,98901.61
2023-04-18T04:49:07.707Z,98905.57
2023-04-18T04:51:42.332Z,98905.61
2023-04-18T04:54:15.862Z,98906.85
2023-04-18T04:56:51.492Z,98909.25
2023-04-18T04:59:28.283Z,98908.21
2023-04-18T05:02:01.581Z,98911.31
2023-04-18T05:04:38.802Z,98911.52
2023-04-18T05:07:13.212Z,98903.80
2023-04-18T05:09:52.557Z,98907.67
2023-04-18T05:12:30.862Z,98909.79
2023-04-18T05:15:05.673Z,98907.43
2023-04-18T05:17:43.607Z,98904.37
2023-04-18T05:20:18.520Z,98913.52
2023-04-18T05:22:52.071Z,98916.34
2023-04-18T05:25:34.885Z,98911.73
2023-04-18T05:28:12.239Z,98914.00
2023-04-18T05:30:52.358Z,98914.55
2023-04-18T05:33:27.452Z,98916.45
2023-04-18T05:36:02.966Z,98925.60
2023-04-18T05:38:39.725Z,98920.98
2023-04-18T05:41:14.743Z,98923.27
2023-04-18T05:43:58.212Z,98921.04
2023-04-18T05:46:38.670Z,98924.15
2023-04-18T05:49:11.900Z,98923.13
2023-04-18T05:51:47.566Z,98921.41
2023-04-18T05:54:22.050Z,98925.75
2023-04-18T05:57:02.111Z,98925.26
2023-04-18T05:59:36.196Z,98928.70
2023-04-18T06:02:13.825Z,98926.28
2023-04-18T06:04:46.005Z,98926.15
2023-04-18T06:07:18.510Z,98925.64
2023-04-18T06:09:52.030Z,98933.40
2023-04-18T06:12:25.063Z,98932.74
2023-04-18T06:14:58.801Z,98935.17
2023-04-18T06:17:33.944Z,98943.27
2023-04-18T06:20:07.930Z,98945.71
2023-04-18T06:22:40.659Z,98946.42
2023-04-18T06:25:14.360Z,98953.17
2023-04-18T06:27:46.026Z,98949.22
2023-04-18T06:30:22.332Z,98953.73
2023-04-18T06:32:56.820Z,98956.14
2023-04-18T06:35:32.683Z,98950.11
2023-04-18T06:38:03.261Z,98958.23
2023-04-18T06:40:35.490Z,98960.81
2023-04-18T06:43:11.725Z,98961.86
2023-04-18T06:45:46.115Z,98969.77
2023-04-18T06:48:23.300Z,98973.04
2023-04-18T06:50:57.197Z,98977.52
2023-04-18T06:53:31.514Z,98982.34
2023-04-18T06:56:04.496Z,98983.74
2023-04-18T06:58:37.267Z,98986.85
2023-04-18T07:01:10.229Z,98979.60
2023-04-18T07:03:44.045Z,98991.15
2023-04-18T07:06:17.172Z,98983.05
2023-04-18T07:08:48.587Z,98986.67
2023-04-18T07:11:25.911Z,98993.75
2023-04-18T07:14:02.990Z,98996.00
2023-04-18T07:16:35.621Z,99000.14
2023-04-18T07:19:09.935Z,99002.20
2023-04-18T07:21:44.066Z,99003.92
2023-04-18T07:24:17.709Z,99005.84
2023-04-18T07:26:54.887Z,99001.37
2023-04-18T07:29:30.472Z,98997.92
2023-04-18T07:32:02.608Z,98996.19
2023-04-18T07:34:36.759Z,98991.05
2023-04-18T07:37:09.653Z,98990.17
2023-04-18T07:39:42.111Z,98990.52
2023-04-18T07:42:15.142Z,98995.35
2023-04-18T07:44:50.043Z,98994.83
2023-04-18T07:47:23.497Z,98992.23
2023-04-18T07:49:59.173Z,98988.43
2023-04-18T07:52:34.853Z,98991.38
2023-04-18T07:55:12.590Z,98993.95
2023-04-18T07:57:51.016Z,98996.01
2023-04-18T08:00:24.417Z,99000.33
2023-04-18T08:02:57.632Z,99001.34
2023-04-18T08:05:30.368Z,99003.95
2023-04-18T08:08:04.135Z,99008.42
2023-04-18T08:10:36.806Z,99007.91
2023-04-18T08:13:08.493Z,99008.24
2023-04-18T08:15:40.875Z,99007.38
2023-04-18T08:18:14.032Z,99007.35
2023-04-18T08:20:50.233Z,99007.84
2023-04-18T08:23:24.205Z,99012.27
2023-04-18T08:25:57.878Z,99009.95
2023-04-18T08:28:34.818Z,99011.27
2023-04-18T08:31:09.292Z,99011.59
2023-04-18T08:33:44.509Z,99007.02
2023-04-18T08:36:18.575Z,99002.64
2023-04-18T08:38:54.002Z,99010.06
2023-04-18T08:41:28.121Z,99010.33
2023-04-18T08:44:01.946Z,99010.77
2023-04-18T08:46:42.579Z,99011.30
2023-04-18T08:49:18.481Z,99013.17
2023-04-18T08:51:55.372Z,99006.41
2023-04-18T08:54:31.620Z,99008.39
2023-04-18T08:57:14.425Z,99002.86
2023-04-18T08:59:51.340Z,99002.17
2023-04-18T09:02:27.423Z,99007.02
2023-04-18T09:05:01.299Z,99007.04
2023-04-18T09:07:37.226Z,99004.06
2023-04-18T09:10:13.957Z,99013.39
2023-04-18T09:12:51.011Z,99015.27
2023-04-18T09:15:30.346Z,99022.21
2023-04-18T09:18:06.729Z,99017.55
2023-04-18T09:20:45.700Z,99014.45
2023-04-18T09:23:26.788Z,99010.92
2023-04-18T09:26:01.465Z,98998.80
2023-04-18T09:28:34.636Z,98991.06
2023-04-18T09:31:15.128Z,98986.86
2023-04-18T09:33:57.405Z,98985.98
2023-04-18T09:36:31.958Z,98980.88
2023-04-18T09:39:07.625Z,98982.40
2023-04-18T09:41:40.967Z,98988.33
2023-04-18T09:44:16.184Z,98989.05
2023-04-18T09:46:51.591Z,98979.27
2023-04-18T09:49:28.203Z,98980.29
2023-04-18T09:52:05.459Z,98983.10
2023-04-18T09:54:46.568Z,98980.64
2023-04-18T09:57:22.227Z,98982.65
2023-04-18T10:00:00.435Z,98984.83
2023-04-18T10:02:43.358Z,98987.02
2023-04-18T10:05:19.561Z,98986.26
2023-04-18T10:07:54.960Z,98989.56
2023-04-18T10:10:28.728Z,98988.58
2023-04-18T10:13:04.333Z,98985.70
2023-04-18T10:15:37.422Z,98988.46
2023-04-18T10:18:17.337Z,98990.31
2023-04-18T10:20:50.592Z,98993.52
2023-04-18T10:23:39.139Z,98992.57
2023-04-18T10:26:15.232Z,98987.86
2023-04-18T10:28:58.895Z,98983.61
2023-04-18T10:31:32.297Z,98980.95
2023-04-18T10:34:07.584Z,98984.69
2023-04-18T10:36:40.788Z,98980.41
2023-04-18T10:39:28.008Z,98979.11
2023-04-18T10:42:00.039Z,98974.22
2023-04-18T10:44:34.404Z,98975.84
2023-04-18T10:47:29.050Z,98980.85
2023-04-18T10:50:06.646Z,98981.17
2023-04-18T10:52:39.433Z,98978.30
2023-04-18T10:55:19.610Z,98979.75
2023-04-18T10:57:56.243Z,98974.27
2023-04-18T11:00:27.914Z,98969.36
2023-04-18T11:03:00.984Z,98970.67
2023-04-18T11:05:33.802Z,98967.88
2023-04-18T11:08:07.146Z,98961.77
2023-04-18T11:10:40.605Z,98963.08
2023-04-18T11:13:15.359Z,98954.27
2023-04-18T11:15:47.297Z,98947.39
2023-04-18T11:18:25.880Z,98935.17
2023-04-18T11:20:59.817Z,98948.58
2023-04-18T11:23:34.926Z,98949.75
2023-04-18T11:26:10.285Z,98940.02
2023-04-18T11:28:49.526Z,98933.19
2023-04-18T11:31:21.813Z,98928.26
2023-04-18T11:34:01.742Z,98925.08
2023-04-18T11:36:38.277Z,98923.33
2023-04-18T11:39:12.917Z,98925.45
2023-04-18T11:41:52.121Z,98919.95
2023-04-18T11:44:29.513Z,98919.13
2023-04-18T11:47:02.623Z,98923.77
2023-04-18T11:50:01.680Z,98924.54
2023-04-18T11:52:39.323Z,98928.28
2023-04-18T11:55:25.330Z,98920.99
2023-04-18T11:57:58.878Z,98923.55
2023-04-18T12:00:41.206Z,98928.95
2023-04-18T12:03:21.560Z,98931.45
2023-04-18T12:06:03.445Z,98945.02
2023-04-18T12:08:39.297Z,98943.77
2023-04-18T12:11:11.815Z,98939.13
2023-04-18T12:13:45.194Z,98938.15
2023-04-18T12:16:20.069Z,98937.55
2023-04-18T12:18:54.326Z,98941.07
2023-04-18T12:21:29.545Z,98942.80
2023-04-18T12:24:03.780Z,98937.05
2023-04-18T12:26:48.227Z,98924.20
2023-04-18T12:29:23.509Z,98919.73
2023-04-18T12:32:00.313Z,98913.81
2023-04-18T12:34:36.289Z,98916.92
2023-04-18T12:37:09.801Z,98913.70
2023-04-18T12:39:45.821Z,98907.46
2023-04-18T12:42:21.858Z,98920.13
2023-04-18T12:44:56.890Z,98916.25
2023-04-18T12:47:32.906Z,98916.63
2023-04-18T12:50:11.344Z,98911.15
2023-04-18T12:52:46.818Z,98908.87
2023-04-18T12:55:20.033Z,98915.91
2023-04-18T12:58:07.280Z,98922.63
2023-04-18T13:00:42.683Z,98923.63
2023-04-18T13:03:16.589Z,98931.61
2023-04-18T13:05:49.940Z,98930.49
2023-04-18T13:08:26.347Z,98918.76
2023-04-18T13:10:59.841Z,98929.82
2023-04-18T13:13:35.789Z,98933.56
2023-04-18T13:16:11.360Z,98936.48
2023-04-18T13:18:43.958Z,98935.94
2023-04-18T13:21:17.933Z,98936.31
2023-04-18T13:23:56.189Z,98935.84
2023-04-18T13:26:36.735Z,98934.44
2023-04-18T13:29:14.833Z,98935.84
2023-04-18T13:31:49.466Z,98934.41
2023-04-18T13:34:25.746Z,98938.23
2023-04-18T13:36:59.112Z,98935.38
2023-04-18T13:39:39.156Z,98941.41
2023-04-18T13:42:16.163Z,98939.00
2023-04-18T13:44:51.505Z,98939.46
2023-04-18T13:47:25.342Z,98942.26
2023-04-18T13:49:59.433Z,98937.64
2023-04-18T13:52:33.482Z,98938.57
2023-04-18T13:55:13.480Z,98939.17
2023-04-18T13:57:47.101Z,98940.25
2023-04-18T14:00:20.978Z,98942.55
2023-04-18T14:02:55.925Z,98942.88
2023-04-18T14:05:34.729Z,98943.82
2023-04-18T14:08:13.315Z,98937.27
2023-04-18T14:10:48.001Z,98933.10
2023-04-18T14:13:22.117Z,98935.05
2023-04-18T14:15:58.416Z,98933.90
2023-04-18T14:18:32.993Z,98935.49
2023-04-18T14:21:06.359Z,98935.54
2023-04-18T14:23:40.343Z,98931.65
2023-04-18T14:26:15.521Z,98925.80
2023-04-18T14:28:49.166Z,98922.73
2023-04-18T14:31:22.552Z,98915.46
2023-04-18T14:33:56.192Z,98918.17
2023-04-18T14:36:29.488Z,98925.69
2023-04-18T14:39:05.856Z,98921.27
2023-04-18T14:41:40.888Z,98922.37
2023-04-18T14:44:14.702Z,98927.20
2023-04-18T14:46:56.526Z,98925.73
2023-04-18T14:49:34.799Z,98927.69
2023-04-18T14:52:16.534Z,98927.95
2023-04-18T14:54:51.696Z,98932.20
2023-04-18T14:57:32.889Z,98929.02
2023-04-18T15:00:11.273Z,98926.30
2023-04-18T15:02:50.320Z,98928.63
2023-04-18T15:05:25.468Z,98920.89
2023-04-18T15:07:59.131Z,98938.98
2023-04-18T15:10:32.823Z,98934.48
2023-04-18T15:13:08.556Z,98930.59
2023-04-18T15:15:44.109Z,98932.91
2023-04-18T15:18:17.660Z,98931.33
2023-04-18T15:20:51.855Z,98931.31
2023-04-18T15:23:26.875Z,98930.13
2023-04-18T15:26:02.166Z,98928.39
2023-04-18T15:28:37.033Z,98929.17
2023-04-18T15:31:13.402Z,98936.85
2023-04-18T15:39:44.959Z,98927.65
2023-04-18T15:42:18.165Z,98923.08
2023-04-18T15:44:53.703Z,98917.57
2023-04-18T15:47:27.569Z,98922.90
2023-04-18T15:50:00.973Z,98926.16
2023-04-18T15:52:34.639Z,98925.77
2023-04-18T15:55:12.612Z,98931.68
2023-04-18T15:57:45.372Z,98929.49
2023-04-18T16:00:22.797Z,98930.60
2023-04-18T16:02:54.334Z,98932.59
2023-04-18T16:05:29.124Z,98938.34
2023-04-18T16:08:04.073Z,98933.17
2023-04-18T16:10:41.046Z,98941.31
2023-04-18T16:13:14.746Z,98936.25
2023-04-18T16:15:48.850Z,98935.92
2023-04-18T16:18:21.921Z,98939.73
2023-04-18T16:20:55.207Z,98942.90
2023-04-18T16:23:28.919Z,98938.41
2023-04-18T16:26:03.558Z,98934.48
2023-04-18T16:28:41.015Z,98941.78
2023-04-18T16:31:13.723Z,98948.08
2023-04-18T16:34:08.190Z,98948.48
2023-04-18T16:36:43.461Z,98946.14
2023-04-18T16:39:19.922Z,98949.98
2023-04-18T16:41:55.168Z,98952.38
2023-04-18T16:44:30.574Z,98958.46
2023-04-18T16:47:06.686Z,98956.66
2023-04-18T16:49:39.716Z,98950.64
2023-04-18T16:52:13.823Z,98953.96
2023-04-18T16:54:49.377Z,98960.55
2023-04-18T16:57:26.447Z,98954.10
2023-04-18T17:00:02.272Z,98958.74
2023-04-18T17:02:35.910Z,98969.45
2023-04-18T17:05:10.174Z,98969.75
2023-04-18T17:07:45.455Z,98971.27
2023-04-18T17:10:18.094Z,98975.70
2023-04-18T17:12:49.765Z,98980.49
2023-04-18T17:15:23.818Z,98973.97
2023-04-18T17:17:56.786Z,98980.64
2023-04-18T17:20:30.536Z,98986.09
2023-04-18T17:23:04.197Z,98992.75
2023-04-18T17:25:39.069Z,98991.83
2023-04-18T17:28:12.247Z,98995.75
2023-04-18T17:30:48.900Z,98995.37
2023-04-18T17:33:27.580Z,98995.02
2023-04-18T17:36:00.831Z,98996.36
2023-04-18T17:38:32.943Z,99000.83
2023-04-18T17:41:07.723Z,99001.27
2023-04-18T17:43:42.499Z,99006.03
2023-04-18T17:46:15.214Z,99000.44
2023-04-18T17:48:46.372Z,99008.30
2023-04-18T17:51:20.741Z,99005.08
2023-04-18T17:53:52.580Z,99009.48
2023-04-18T17:56:24.654Z,99013.84
2023-04-18T17:59:00.763Z,99015.92
2023-04-18T18:01:35.968Z,99015.09
2023-04-18T18:04:11.019Z,99014.45
2023-04-18T18:06:57.864Z,99018.48
2023-04-18T18:09:30.959Z,99022.00
2023-04-18T18:12:06.466Z,99022.08
2023-04-18T18:14:41.457Z,99024.73
2023-04-18T18:17:14.431Z,99023.54
2023-04-18T18:19:54.895Z,99032.04
2023-04-18T18:22:32.171Z,99024.50
2023-04-18T18:25:07.280Z,99027.43
2023-04-18T18:27:45.315Z,99029.39
2023-04-18T18:30:20.558Z,99032.34
2023-04-18T18:32:58.101Z,99035.86
2023-04-18T18:35:32.537Z,99040.05
2023-04-18T18:38:09.618Z,99041.06
2023-04-18T18:40:47.030Z,99040.73
2023-04-18T18:43:21.564Z,99042.14
2023-04-18T18:45:56.154Z,99041.64
2023-04-18T18:48:33.987Z,99044.09
2023-04-18T18:51:06.864Z,99050.86
2023-04-18T18:53:40.866Z,99046.71
2023-04-18T18:56:18.744Z,99059.87
2023-04-18T18:58:50.752Z,99064.89
2023-04-18T19:01:26.168Z,99049.25
2023-04-18T19:04:03.907Z,99073.59
2023-04-18T19:06:45.097Z,99069.61
2023-04-18T19:09:20.721Z,99074.45
2023-04-18T19:11:56.669Z,99074.63
2023-04-18T19:14:34.477Z,99075.50
2023-04-18T19:17:10.455Z,99076.04
2023-04-18T19:19:46.350Z,99074.84
2023-04-18T19:22:20.189Z,99071.22
2023-04-18T19:24:59.164Z,99081.44
2023-04-18T19:27:35.689Z,99087.48
2023-04-18T19:30:11.121Z,99081.27
2023-04-18T19:32:49.751Z,99088.55
2023-04-18T19:35:29.535Z,99082.33
2023-04-18T19:38:05.387Z,99081.85
2023-04-18T19:40:45.800Z,99084.25
2023-04-18T19:43:22.488Z,99085.64
2023-04-18T19:46:01.151Z,99084.60
2023-04-18T19:48:38.739Z,99079.43
2023-04-18T19:51:14.903Z,99078.94
2023-04-18T19:53:51.765Z,99079.27
2023-04-18T19:56:25.813Z,99076.86
2023-04-18T19:59:04.282Z,99075.67
2023-04-18T20:01:46.789Z,99083.80
2023-04-18T20:04:22.933Z,99081.06
2023-04-18T20:06:58.771Z,99080.02
2023-04-18T20:09:37.232Z,99081.39
2023-04-18T20:12:13.828Z,99084.34
2023-04-18T20:14:49.413Z,99084.35
2023-04-18T20:17:23.468Z,99088.50
2023-04-18T20:20:01.635Z,99085.04
2023-04-18T20:22:40.437Z,99087.63
2023-04-18T20:25:22.159Z,99086.09
2023-04-18T20:28:00.059Z,99085.05
2023-04-18T20:36:30.205Z,99090.94
2023-04-18T20:39:08.418Z,99087.65
2023-04-18T20:41:47.300Z,99088.36
2023-04-18T20:44:26.535Z,99087.67
2023-04-18T20:47:01.530Z,99081.14
2023-04-18T20:49:35.742Z,99091.31
2023-04-18T20:52:12.459Z,99091.30
2023-04-18T20:54:51.440Z,99092.70
2023-04-18T20:57:32.465Z,99086.50
2023-04-18T21:00:07.204Z,99091.86
2023-04-18T21:02:47.261Z,99094.46
2023-04-18T21:05:24.205Z,99096.20
2023-04-18T21:08:01.260Z,99097.58
2023-04-18T21:10:36.365Z,99096.03
2023-04-18T21:13:10.823Z,99092.59
2023-04-18T21:15:47.259Z,99097.79
2023-04-18T21:18:22.874Z,99100.02
2023-04-18T21:21:01.126Z,99102.11
2023-04-18T21:23:46.332Z,99097.61
2023-04-18T21:26:24.029Z,99100.56
2023-04-18T21:29:05.329Z,99097.98
2023-04-18T21:31:39.159Z,99102.80
2023-04-18T21:38:08.944Z,99099.16
2023-04-18T21:46:50.776Z,99095.02
2023-04-18T21:49:26.988Z,99095.91
2023-04-18T21:52:01.724Z,99093.34
2023-04-18T21:54:40.827Z,99096.27
2023-04-18T21:57:19.209Z,99095.76
2023-04-18T21:59:53.965Z,99094.20
2023-04-18T22:02:28.198Z,99092.15
2023-04-18T22:05:05.520Z,99093.89
2023-04-18T22:11:24.048Z,99095.44
2023-04-18T22:13:58.551Z,99095.30
2023-04-18T22:16:35.494Z,99094.77
2023-04-18T22:19:12.903Z,99092.02
2023-04-18T22:21:49.152Z,99092.00
2023-04-18T22:24:23.307Z,99083.55
2023-04-18T22:26:59.646Z,99094.26
2023-04-18T22:29:35.346Z,99094.95
2023-04-18T22:32:16.580Z,99093.92
2023-04-18T22:34:53.552Z,99094.95
2023-04-18T22:37:31.979Z,99094.60
2023-04-18T22:40:07.669Z,99092.02
2023-04-18T22:42:42.584Z,99090.45
2023-04-18T22:45:16.998Z,99094.27
2023-04-18T22:47:49.885Z,99092.70
2023-04-18T22:50:22.333Z,99085.27
2023-04-18T22:52:58.820Z,99087.69
2023-04-18T22:55:33.992Z,99090.11
2023-04-18T22:58:09.963Z,99093.73
2023-04-18T23:00:47.501Z,99094.41
2023-04-18T23:03:24.013Z,99095.64
2023-04-18T23:05:59.959Z,99090.63
2023-04-18T23:08:36.778Z,99094.60
2023-04-18T23:11:15.085Z,99094.08
2023-04-18T23:13:50.878Z,99096.50
2023-04-18T23:16:25.556Z,99095.81
2023-04-18T23:19:00.712Z,99089.58
2023-04-18T23:21:39.649Z,99089.21
2023-04-18T23:24:14.320Z,99093.90
2023-04-18T23:26:47.481Z,99093.22
2023-04-18T23:29:25.374Z,99096.67
2023-04-18T23:32:01.855Z,99097.54
2023-04-18T23:34:43.108Z,99094.23
2023-04-18T23:37:16.912Z,99090.10
2023-04-18T23:39:50.874Z,99093.55
2023-04-18T23:42:30.595Z,99097.89
2023-04-18T23:45:07.667Z,99092.86
2023-04-18T23:47:43.632Z,99094.94
2023-04-18T23:50:17.379Z,99091.13
2023-04-18T23:52:51.361Z,99088.55
2023-04-18T23:55:26.325Z,99088.55
2023-04-18T23:58:04.071Z,99083.71
